Forside
METAR-TAF:

METAR-TAF

Lufthavne :

Tajima, Japan

Breddekreds: 35-31N, længdekreds: 134-48E, højde: 210 m

Aktuelle vejr

Denne rapport blev lavet for 9 timer og 1 minutter siden, kl. 09:00 UTC
Vind 6 kt fra nord
Temperatur 13°C
Fugtighed 44%
Tryk 1017 hPa
Sigt 10 km eller mere
Nogle få skyer i en højde af 5000 ft
Spredte skyer

METAR: RJBT 030900Z 36006KT 9999 FEW050 SCT/// 13/01 Q1017

Tid: 03:01 (18:01 UTC)


TAF: fraværende

Vejrobservationer og prognoser fra mere end 4000 lufthavne (METAR og TAF).

De gule og røde prikker repræsenterer de meteorologiske stationer.

Flyt musen over at se navnet på stationen.

Så klik over at se vejr observationer og prognoser.

At skifte det kort: Klik på de grønne knapper med et sort kors for at zoome ind; på den grønne knap med en bindestreg for at zoome ud; eller på de grønne pile for tilstødende kort.


METAR-TAF: